sensor_id;sensor_type;location;lat;lon;timestamp;P1;durP1;ratioP1;P2;durP2;ratioP2
21432;SDS011;18592;49.708;10.900;2023-04-10T00:01:54;7.72;;;6.90;;
21432;SDS011;18592;49.708;10.900;2023-04-10T00:03:55;7.90;;;6.65;;
21432;SDS011;18592;49.708;10.900;2023-04-10T00:05:58;7.93;;;6.80;;
21432;SDS011;18592;49.708;10.900;2023-04-10T00:08:01;6.75;;;6.07;;
21432;SDS011;18592;49.708;10.900;2023-04-10T00:10:03;7.80;;;6.70;;
21432;SDS011;18592;49.708;10.900;2023-04-10T00:12:05;7.95;;;6.65;;
21432;SDS011;18592;49.708;10.900;2023-04-10T00:14:07;7.13;;;6.43;;
21432;SDS011;18592;49.708;10.900;2023-04-10T00:16:09;7.68;;;6.53;;
21432;SDS011;18592;49.708;10.900;2023-04-10T00:18:11;7.38;;;6.60;;
21432;SDS011;18592;49.708;10.900;2023-04-10T00:20:12;7.60;;;6.70;;
21432;SDS011;18592;49.708;10.900;2023-04-10T00:22:14;7.32;;;6.57;;
21432;SDS011;18592;49.708;10.900;2023-04-10T00:24:18;7.93;;;7.13;;
21432;SDS011;18592;49.708;10.900;2023-04-10T00:26:24;7.15;;;6.45;;
21432;SDS011;18592;49.708;10.900;2023-04-10T00:28:27;7.85;;;7.05;;
21432;SDS011;18592;49.708;10.900;2023-04-10T00:30:28;7.93;;;7.10;;
21432;SDS011;18592;49.708;10.900;2023-04-10T00:32:29;7.65;;;6.57;;
21432;SDS011;18592;49.708;10.900;2023-04-10T00:34:31;7.75;;;6.95;;
21432;SDS011;18592;49.708;10.900;2023-04-10T00:36:33;7.70;;;6.93;;
21432;SDS011;18592;49.708;10.900;2023-04-10T00:38:35;8.63;;;7.35;;
21432;SDS011;18592;49.708;10.900;2023-04-10T00:40:38;7.88;;;7.07;;
21432;SDS011;18592;49.708;10.900;2023-04-10T00:42:39;7.82;;;7.05;;
21432;SDS011;18592;49.708;10.900;2023-04-10T00:44:42;7.50;;;6.70;;
21432;SDS011;18592;49.708;10.900;2023-04-10T00:46:44;7.43;;;6.72;;
21432;SDS011;18592;49.708;10.900;2023-04-10T00:48:46;6.75;;;6.05;;
21432;SDS011;18592;49.708;10.900;2023-04-10T00:50:47;7.10;;;6.40;;
21432;SDS011;18592;49.708;10.900;2023-04-10T00:52:49;8.30;;;6.30;;
21432;SDS011;18592;49.708;10.900;2023-04-10T00:54:51;7.32;;;6.63;;
21432;SDS011;18592;49.708;10.900;2023-04-10T00:56:53;6.97;;;6.20;;
21432;SDS011;18592;49.708;10.900;2023-04-10T00:58:57;6.65;;;6.05;;
21432;SDS011;18592;49.708;10.900;2023-04-10T01:01:00;6.72;;;6.03;;
21432;SDS011;18592;49.708;10.900;2023-04-10T01:03:04;7.70;;;6.47;;
21432;SDS011;18592;49.708;10.900;2023-04-10T01:05:05;7.47;;;6.68;;
21432;SDS011;18592;49.708;10.900;2023-04-10T01:09:43;7.22;;;6.53;;
21432;SDS011;18592;49.708;10.900;2023-04-10T01:11:52;7.43;;;6.65;;
21432;SDS011;18592;49.708;10.900;2023-04-10T01:16:33;7.60;;;6.80;;
21432;SDS011;18592;49.708;10.900;2023-04-10T01:18:49;7.18;;;6.47;;
21432;SDS011;18592;49.708;10.900;2023-04-10T01:20:57;6.82;;;6.03;;
21432;SDS011;18592;49.708;10.900;2023-04-10T01:28:15;8.27;;;7.47;;
21432;SDS011;18592;49.708;10.900;2023-04-10T01:30:40;7.05;;;6.35;;
21432;SDS011;18592;49.708;10.900;2023-04-10T01:32:43;8.32;;;7.22;;
21432;SDS011;18592;49.708;10.900;2023-04-10T01:34:46;7.68;;;6.88;;
21432;SDS011;18592;49.708;10.900;2023-04-10T01:36:54;7.65;;;6.68;;
21432;SDS011;18592;49.708;10.900;2023-04-10T01:38:59;7.20;;;6.50;;
21432;SDS011;18592;49.708;10.900;2023-04-10T01:41:02;7.25;;;6.55;;
21432;SDS011;18592;49.708;10.900;2023-04-10T01:43:07;7.20;;;6.50;;
21432;SDS011;18592;49.708;10.900;2023-04-10T01:45:26;8.40;;;6.40;;
21432;SDS011;18592;49.708;10.900;2023-04-10T01:47:32;7.18;;;6.38;;
21432;SDS011;18592;49.708;10.900;2023-04-10T01:49:34;7.60;;;6.80;;
21432;SDS011;18592;49.708;10.900;2023-04-10T01:51:43;8.48;;;6.90;;
21432;SDS011;18592;49.708;10.900;2023-04-10T01:53:49;7.15;;;6.45;;
21432;SDS011;18592;49.708;10.900;2023-04-10T01:55:57;8.07;;;7.10;;
21432;SDS011;18592;49.708;10.900;2023-04-10T01:58:00;7.07;;;6.38;;
21432;SDS011;18592;49.708;10.900;2023-04-10T02:00:02;7.70;;;6.90;;
21432;SDS011;18592;49.708;10.900;2023-04-10T02:02:15;8.30;;;7.05;;
21432;SDS011;18592;49.708;10.900;2023-04-10T02:04:19;7.55;;;6.75;;
21432;SDS011;18592;49.708;10.900;2023-04-10T02:08:54;8.05;;;6.55;;
21432;SDS011;18592;49.708;10.900;2023-04-10T02:11:46;7.03;;;6.30;;
21432;SDS011;18592;49.708;10.900;2023-04-10T02:13:29;7.18;;;6.45;;
21432;SDS011;18592;49.708;10.900;2023-04-10T02:15:34;7.78;;;6.82;;
21432;SDS011;18592;49.708;10.900;2023-04-10T02:17:40;7.35;;;6.50;;
21432;SDS011;18592;49.708;10.900;2023-04-10T02:19:45;7.25;;;6.45;;
21432;SDS011;18592;49.708;10.900;2023-04-10T02:21:49;6.97;;;6.25;;
21432;SDS011;18592;49.708;10.900;2023-04-10T02:23:51;7.47;;;6.40;;
21432;SDS011;18592;49.708;10.900;2023-04-10T02:25:53;6.95;;;6.25;;
21432;SDS011;18592;49.708;10.900;2023-04-10T02:28:03;6.47;;;5.88;;
21432;SDS011;18592;49.708;10.900;2023-04-10T02:30:06;7.10;;;6.40;;
21432;SDS011;18592;49.708;10.900;2023-04-10T02:32:11;7.57;;;6.45;;
21432;SDS011;18592;49.708;10.900;2023-04-10T02:34:12;6.97;;;6.32;;
21432;SDS011;18592;49.708;10.900;2023-04-10T02:36:14;7.93;;;6.97;;
21432;SDS011;18592;49.708;10.900;2023-04-10T02:38:16;6.93;;;6.22;;
21432;SDS011;18592;49.708;10.900;2023-04-10T02:40:17;6.88;;;6.18;;
21432;SDS011;18592;49.708;10.900;2023-04-10T02:42:26;7.45;;;6.65;;
21432;SDS011;18592;49.708;10.900;2023-04-10T02:44:32;7.65;;;6.70;;
21432;SDS011;18592;49.708;10.900;2023-04-10T02:46:33;7.70;;;6.90;;
21432;SDS011;18592;49.708;10.900;2023-04-10T02:48:35;9.10;;;6.75;;
21432;SDS011;18592;49.708;10.900;2023-04-10T02:50:37;7.03;;;6.32;;
21432;SDS011;18592;49.708;10.900;2023-04-10T02:52:39;7.55;;;6.82;;
21432;SDS011;18592;49.708;10.900;2023-04-10T02:54:44;8.07;;;6.90;;
21432;SDS011;18592;49.708;10.900;2023-04-10T02:56:48;6.88;;;5.95;;
21432;SDS011;18592;49.708;10.900;2023-04-10T02:58:50;7.35;;;6.60;;
21432;SDS011;18592;49.708;10.900;2023-04-10T03:00:51;7.60;;;6.22;;
21432;SDS011;18592;49.708;10.900;2023-04-10T03:03:12;6.60;;;5.93;;
21432;SDS011;18592;49.708;10.900;2023-04-10T03:05:19;7.63;;;5.80;;
21432;SDS011;18592;49.708;10.900;2023-04-10T03:07:21;7.20;;;6.50;;
21432;SDS011;18592;49.708;10.900;2023-04-10T03:09:23;6.72;;;6.03;;
21432;SDS011;18592;49.708;10.900;2023-04-10T03:11:24;7.65;;;6.35;;
21432;SDS011;18592;49.708;10.900;2023-04-10T03:13:27;6.60;;;5.90;;
21432;SDS011;18592;49.708;10.900;2023-04-10T03:15:29;7.22;;;6.53;;
21432;SDS011;18592;49.708;10.900;2023-04-10T03:17:32;6.55;;;5.90;;
21432;SDS011;18592;49.708;10.900;2023-04-10T03:19:34;6.90;;;6.20;;
21432;SDS011;18592;49.708;10.900;2023-04-10T03:21:35;7.65;;;6.25;;
21432;SDS011;18592;49.708;10.900;2023-04-10T03:23:39;6.97;;;5.93;;
21432;SDS011;18592;49.708;10.900;2023-04-10T03:25:41;6.95;;;5.80;;
21432;SDS011;18592;49.708;10.900;2023-04-10T03:27:44;7.22;;;6.53;;
21432;SDS011;18592;49.708;10.900;2023-04-10T03:29:45;7.22;;;6.00;;
21432;SDS011;18592;49.708;10.900;2023-04-10T03:31:47;6.82;;;6.10;;
21432;SDS011;18592;49.708;10.900;2023-04-10T03:33:52;6.47;;;5.85;;
21432;SDS011;18592;49.708;10.900;2023-04-10T03:35:57;7.40;;;6.20;;
21432;SDS011;18592;49.708;10.900;2023-04-10T03:37:59;7.78;;;6.57;;
21432;SDS011;18592;49.708;10.900;2023-04-10T03:40:05;7.68;;;6.88;;
21432;SDS011;18592;49.708;10.900;2023-04-10T03:42:08;7.03;;;6.32;;
21432;SDS011;18592;49.708;10.900;2023-04-10T03:44:10;7.25;;;6.55;;
21432;SDS011;18592;49.708;10.900;2023-04-10T03:46:12;8.30;;;6.55;;
21432;SDS011;18592;49.708;10.900;2023-04-10T03:48:17;6.70;;;6.00;;
21432;SDS011;18592;49.708;10.900;2023-04-10T03:50:37;6.72;;;6.07;;
21432;SDS011;18592;49.708;10.900;2023-04-10T03:52:39;6.78;;;6.07;;
21432;SDS011;18592;49.708;10.900;2023-04-10T03:54:47;6.88;;;6.18;;
21432;SDS011;18592;49.708;10.900;2023-04-10T03:56:58;7.32;;;6.15;;
21432;SDS011;18592;49.708;10.900;2023-04-10T03:59:01;6.60;;;5.90;;
21432;SDS011;18592;49.708;10.900;2023-04-10T04:01:03;6.90;;;6.20;;
21432;SDS011;18592;49.708;10.900;2023-04-10T04:03:12;7.55;;;6.60;;
21432;SDS011;18592;49.708;10.900;2023-04-10T04:05:26;8.55;;;6.75;;
21432;SDS011;18592;49.708;10.900;2023-04-10T04:07:54;6.88;;;6.15;;
21432;SDS011;18592;49.708;10.900;2023-04-10T04:10:10;8.23;;;6.55;;
21432;SDS011;18592;49.708;10.900;2023-04-10T04:12:27;6.72;;;6.05;;
21432;SDS011;18592;49.708;10.900;2023-04-10T04:14:49;6.65;;;5.95;;
21432;SDS011;18592;49.708;10.900;2023-04-10T04:16:51;6.90;;;6.20;;
21432;SDS011;18592;49.708;10.900;2023-04-10T04:19:10;6.75;;;5.95;;
21432;SDS011;18592;49.708;10.900;2023-04-10T04:21:17;7.20;;;6.50;;
21432;SDS011;18592;49.708;10.900;2023-04-10T04:23:39;6.93;;;6.22;;
21432;SDS011;18592;49.708;10.900;2023-04-10T04:26:07;6.88;;;6.15;;
21432;SDS011;18592;49.708;10.900;2023-04-10T04:28:27;6.90;;;6.20;;
21432;SDS011;18592;49.708;10.900;2023-04-10T04:30:53;7.57;;;5.82;;
21432;SDS011;18592;49.708;10.900;2023-04-10T04:33:16;7.50;;;6.32;;
21432;SDS011;18592;49.708;10.900;2023-04-10T04:35:41;6.78;;;6.07;;
21432;SDS011;18592;49.708;10.900;2023-04-10T04:37:50;6.82;;;6.13;;
21432;SDS011;18592;49.708;10.900;2023-04-10T04:40:11;8.10;;;6.03;;
21432;SDS011;18592;49.708;10.900;2023-04-10T04:42:30;8.77;;;6.38;;
21432;SDS011;18592;49.708;10.900;2023-04-10T04:44:58;6.80;;;6.10;;
21432;SDS011;18592;49.708;10.900;2023-04-10T04:47:25;6.30;;;5.70;;
21432;SDS011;18592;49.708;10.900;2023-04-10T04:49:52;7.72;;;5.65;;
21432;SDS011;18592;49.708;10.900;2023-04-10T04:52:02;7.90;;;6.13;;
21432;SDS011;18592;49.708;10.900;2023-04-10T04:54:27;6.55;;;5.90;;
21432;SDS011;18592;49.708;10.900;2023-04-10T04:56:50;6.50;;;5.90;;
21432;SDS011;18592;49.708;10.900;2023-04-10T04:58:59;6.97;;;6.25;;
21432;SDS011;18592;49.708;10.900;2023-04-10T05:01:08;7.00;;;6.25;;
21432;SDS011;18592;49.708;10.900;2023-04-10T05:03:25;7.22;;;6.50;;
21432;SDS011;18592;49.708;10.900;2023-04-10T05:05:41;6.97;;;6.22;;
21432;SDS011;18592;49.708;10.900;2023-04-10T05:07:54;7.18;;;6.22;;
21432;SDS011;18592;49.708;10.900;2023-04-10T05:10:22;6.90;;;6.20;;
21432;SDS011;18592;49.708;10.900;2023-04-10T05:12:44;6.50;;;5.85;;
21432;SDS011;18592;49.708;10.900;2023-04-10T05:14:56;6.65;;;5.95;;
21432;SDS011;18592;49.708;10.900;2023-04-10T05:17:17;7.40;;;6.50;;
21432;SDS011;18592;49.708;10.900;2023-04-10T05:19:29;8.80;;;6.82;;
21432;SDS011;18592;49.708;10.900;2023-04-10T05:21:59;7.10;;;6.03;;
21432;SDS011;18592;49.708;10.900;2023-04-10T05:24:24;7.20;;;6.43;;
21432;SDS011;18592;49.708;10.900;2023-04-10T05:26:55;6.55;;;5.70;;
21432;SDS011;18592;49.708;10.900;2023-04-10T05:29:15;7.10;;;6.05;;
21432;SDS011;18592;49.708;10.900;2023-04-10T05:31:30;6.05;;;5.45;;
21432;SDS011;18592;49.708;10.900;2023-04-10T05:33:43;6.20;;;5.60;;
21432;SDS011;18592;49.708;10.900;2023-04-10T05:35:59;6.70;;;5.97;;
21432;SDS011;18592;49.708;10.900;2023-04-10T05:38:10;6.50;;;5.82;;
21432;SDS011;18592;49.708;10.900;2023-04-10T05:40:20;7.35;;;6.15;;
21432;SDS011;18592;49.708;10.900;2023-04-10T05:42:44;6.15;;;5.55;;
21432;SDS011;18592;49.708;10.900;2023-04-10T05:45:18;5.97;;;5.32;;
21432;SDS011;18592;49.708;10.900;2023-04-10T05:47:22;6.53;;;5.75;;
21432;SDS011;18592;49.708;10.900;2023-04-10T05:49:43;6.15;;;5.55;;
21432;SDS011;18592;49.708;10.900;2023-04-10T05:51:55;6.13;;;5.47;;
21432;SDS011;18592;49.708;10.900;2023-04-10T05:54:18;6.60;;;5.68;;
21432;SDS011;18592;49.708;10.900;2023-04-10T05:56:36;6.70;;;5.70;;
21432;SDS011;18592;49.708;10.900;2023-04-10T05:58:59;7.65;;;6.00;;
21432;SDS011;18592;49.708;10.900;2023-04-10T06:01:19;6.03;;;5.43;;
21432;SDS011;18592;49.708;10.900;2023-04-10T06:03:29;6.18;;;5.57;;
21432;SDS011;18592;49.708;10.900;2023-04-10T06:05:35;6.00;;;5.40;;
21432;SDS011;18592;49.708;10.900;2023-04-10T06:07:40;6.43;;;5.80;;
21432;SDS011;18592;49.708;10.900;2023-04-10T06:09:42;8.40;;;5.93;;
21432;SDS011;18592;49.708;10.900;2023-04-10T06:11:44;6.20;;;5.60;;
21432;SDS011;18592;49.708;10.900;2023-04-10T06:13:49;7.90;;;5.70;;
21432;SDS011;18592;49.708;10.900;2023-04-10T06:15:51;7.07;;;5.78;;
21432;SDS011;18592;49.708;10.900;2023-04-10T06:17:53;6.35;;;5.65;;
21432;SDS011;18592;49.708;10.900;2023-04-10T06:19:55;9.23;;;6.50;;
21432;SDS011;18592;49.708;10.900;2023-04-10T06:22:00;8.13;;;6.30;;
21432;SDS011;18592;49.708;10.900;2023-04-10T06:24:02;11.13;;;6.50;;
21432;SDS011;18592;49.708;10.900;2023-04-10T06:26:04;11.00;;;6.47;;
21432;SDS011;18592;49.708;10.900;2023-04-10T06:28:06;8.75;;;6.40;;
21432;SDS011;18592;49.708;10.900;2023-04-10T06:30:07;11.45;;;6.97;;
21432;SDS011;18592;49.708;10.900;2023-04-10T06:32:09;9.13;;;6.50;;
21432;SDS011;18592;49.708;10.900;2023-04-10T06:34:13;9.38;;;7.18;;
21432;SDS011;18592;49.708;10.900;2023-04-10T06:36:25;10.23;;;6.82;;
21432;SDS011;18592;49.708;10.900;2023-04-10T06:38:37;11.70;;;7.13;;
21432;SDS011;18592;49.708;10.900;2023-04-10T06:40:42;11.43;;;7.03;;
21432;SDS011;18592;49.708;10.900;2023-04-10T06:42:43;9.68;;;6.95;;
21432;SDS011;18592;49.708;10.900;2023-04-10T06:44:55;14.70;;;9.77;;
21432;SDS011;18592;49.708;10.900;2023-04-10T06:46:57;19.55;;;13.18;;
21432;SDS011;18592;49.708;10.900;2023-04-10T06:48:59;18.85;;;12.43;;
21432;SDS011;18592;49.708;10.900;2023-04-10T06:51:00;15.60;;;10.77;;
21432;SDS011;18592;49.708;10.900;2023-04-10T06:53:02;13.43;;;8.85;;
21432;SDS011;18592;49.708;10.900;2023-04-10T06:55:03;10.60;;;7.88;;
21432;SDS011;18592;49.708;10.900;2023-04-10T06:57:06;12.70;;;8.65;;
21432;SDS011;18592;49.708;10.900;2023-04-10T06:59:07;10.23;;;8.50;;
21432;SDS011;18592;49.708;10.900;2023-04-10T07:01:09;10.43;;;8.88;;
21432;SDS011;18592;49.708;10.900;2023-04-10T07:03:10;10.38;;;7.70;;
21432;SDS011;18592;49.708;10.900;2023-04-10T07:05:18;10.52;;;8.07;;
21432;SDS011;18592;49.708;10.900;2023-04-10T07:07:19;9.82;;;8.13;;
21432;SDS011;18592;49.708;10.900;2023-04-10T07:09:21;9.35;;;7.78;;
21432;SDS011;18592;49.708;10.900;2023-04-10T07:11:23;11.27;;;7.95;;
21432;SDS011;18592;49.708;10.900;2023-04-10T07:13:41;8.18;;;7.20;;
21432;SDS011;18592;49.708;10.900;2023-04-10T07:15:51;11.80;;;7.97;;
21432;SDS011;18592;49.708;10.900;2023-04-10T07:17:53;10.52;;;8.10;;
21432;SDS011;18592;49.708;10.900;2023-04-10T07:20:04;11.25;;;7.80;;
21432;SDS011;18592;49.708;10.900;2023-04-10T07:22:06;9.73;;;7.75;;
21432;SDS011;18592;49.708;10.900;2023-04-10T07:24:12;9.65;;;7.68;;
21432;SDS011;18592;49.708;10.900;2023-04-10T07:26:13;10.88;;;7.43;;
21432;SDS011;18592;49.708;10.900;2023-04-10T07:28:15;9.85;;;7.60;;
21432;SDS011;18592;49.708;10.900;2023-04-10T07:30:19;8.88;;;7.65;;
21432;SDS011;18592;49.708;10.900;2023-04-10T07:32:21;11.18;;;7.78;;
21432;SDS011;18592;49.708;10.900;2023-04-10T07:34:26;10.15;;;8.00;;
21432;SDS011;18592;49.708;10.900;2023-04-10T07:36:34;8.48;;;7.35;;
21432;SDS011;18592;49.708;10.900;2023-04-10T07:38:35;9.30;;;7.57;;
21432;SDS011;18592;49.708;10.900;2023-04-10T07:40:44;8.52;;;7.20;;
21432;SDS011;18592;49.708;10.900;2023-04-10T07:42:46;8.18;;;7.35;;
21432;SDS011;18592;49.708;10.900;2023-04-10T07:44:53;10.02;;;8.02;;
21432;SDS011;18592;49.708;10.900;2023-04-10T07:46:57;9.90;;;8.23;;
21432;SDS011;18592;49.708;10.900;2023-04-10T07:49:02;9.60;;;7.80;;
21432;SDS011;18592;49.708;10.900;2023-04-10T07:51:07;8.32;;;7.47;;
21432;SDS011;18592;49.708;10.900;2023-04-10T07:53:10;8.63;;;7.72;;
21432;SDS011;18592;49.708;10.900;2023-04-10T07:55:11;10.85;;;8.05;;
21432;SDS011;18592;49.708;10.900;2023-04-10T07:57:15;8.50;;;7.60;;
21432;SDS011;18592;49.708;10.900;2023-04-10T07:59:17;7.78;;;6.95;;
21432;SDS011;18592;49.708;10.900;2023-04-10T08:01:19;7.47;;;6.68;;
21432;SDS011;18592;49.708;10.900;2023-04-10T08:03:37;8.05;;;7.00;;
21432;SDS011;18592;49.708;10.900;2023-04-10T08:05:46;8.50;;;7.60;;
21432;SDS011;18592;49.708;10.900;2023-04-10T08:07:48;7.78;;;6.97;;
21432;SDS011;18592;49.708;10.900;2023-04-10T08:09:49;9.35;;;8.45;;
21432;SDS011;18592;49.708;10.900;2023-04-10T08:11:53;8.18;;;7.38;;
21432;SDS011;18592;49.708;10.900;2023-04-10T08:14:03;8.63;;;7.72;;
21432;SDS011;18592;49.708;10.900;2023-04-10T08:16:06;8.23;;;7.38;;
21432;SDS011;18592;49.708;10.900;2023-04-10T08:18:13;8.10;;;7.25;;
21432;SDS011;18592;49.708;10.900;2023-04-10T08:20:17;7.97;;;7.18;;
21432;SDS011;18592;49.708;10.900;2023-04-10T08:22:25;8.00;;;7.15;;
21432;SDS011;18592;49.708;10.900;2023-04-10T08:24:30;9.52;;;7.25;;
21432;SDS011;18592;49.708;10.900;2023-04-10T08:26:32;8.10;;;7.30;;
21432;SDS011;18592;49.708;10.900;2023-04-10T08:28:33;7.95;;;7.15;;
21432;SDS011;18592;49.708;10.900;2023-04-10T08:30:36;8.23;;;7.15;;
21432;SDS011;18592;49.708;10.900;2023-04-10T08:32:44;8.38;;;6.88;;
21432;SDS011;18592;49.708;10.900;2023-04-10T08:34:56;7.57;;;6.78;;
21432;SDS011;18592;49.708;10.900;2023-04-10T08:37:04;7.60;;;6.90;;
21432;SDS011;18592;49.708;10.900;2023-04-10T08:39:06;7.82;;;7.03;;
21432;SDS011;18592;49.708;10.900;2023-04-10T08:41:11;8.15;;;7.35;;
21432;SDS011;18592;49.708;10.900;2023-04-10T08:43:18;8.05;;;7.25;;
21432;SDS011;18592;49.708;10.900;2023-04-10T08:45:20;7.90;;;6.85;;
21432;SDS011;18592;49.708;10.900;2023-04-10T08:47:22;6.93;;;6.22;;
21432;SDS011;18592;49.708;10.900;2023-04-10T08:49:39;8.60;;;7.03;;
21432;SDS011;18592;49.708;10.900;2023-04-10T08:51:51;7.95;;;7.15;;
21432;SDS011;18592;49.708;10.900;2023-04-10T08:54:02;8.32;;;7.32;;
21432;SDS011;18592;49.708;10.900;2023-04-10T08:56:06;7.85;;;7.05;;
21432;SDS011;18592;49.708;10.900;2023-04-10T08:58:12;7.70;;;6.93;;
21432;SDS011;18592;49.708;10.900;2023-04-10T09:00:16;7.40;;;6.68;;
21432;SDS011;18592;49.708;10.900;2023-04-10T09:02:23;7.78;;;6.97;;
21432;SDS011;18592;49.708;10.900;2023-04-10T09:04:25;8.13;;;7.32;;
21432;SDS011;18592;49.708;10.900;2023-04-10T09:06:32;8.27;;;7.35;;
21432;SDS011;18592;49.708;10.900;2023-04-10T09:08:33;7.68;;;6.85;;
21432;SDS011;18592;49.708;10.900;2023-04-10T09:10:43;8.65;;;7.32;;
21432;SDS011;18592;49.708;10.900;2023-04-10T09:12:47;8.80;;;7.28;;
21432;SDS011;18592;49.708;10.900;2023-04-10T09:14:49;9.05;;;6.90;;
21432;SDS011;18592;49.708;10.900;2023-04-10T09:17:08;8.02;;;7.10;;
21432;SDS011;18592;49.708;10.900;2023-04-10T09:19:30;7.47;;;6.63;;
21432;SDS011;18592;49.708;10.900;2023-04-10T09:21:32;7.28;;;6.43;;
21432;SDS011;18592;49.708;10.900;2023-04-10T09:23:39;6.60;;;5.88;;
21432;SDS011;18592;49.708;10.900;2023-04-10T09:25:45;7.63;;;6.28;;
21432;SDS011;18592;49.708;10.900;2023-04-10T09:27:51;8.35;;;6.82;;
21432;SDS011;18592;49.708;10.900;2023-04-10T09:30:06;7.45;;;6.65;;
21432;SDS011;18592;49.708;10.900;2023-04-10T09:32:11;6.45;;;5.85;;
21432;SDS011;18592;49.708;10.900;2023-04-10T09:36:15;7.10;;;6.35;;
21432;SDS011;18592;49.708;10.900;2023-04-10T09:38:19;6.75;;;6.07;;
21432;SDS011;18592;49.708;10.900;2023-04-10T09:40:29;7.85;;;6.90;;
21432;SDS011;18592;49.708;10.900;2023-04-10T09:42:31;8.02;;;7.22;;
21432;SDS011;18592;49.708;10.900;2023-04-10T09:44:39;7.22;;;6.53;;
21432;SDS011;18592;49.708;10.900;2023-04-10T09:46:41;6.85;;;6.25;;
21432;SDS011;18592;49.708;10.900;2023-04-10T09:48:53;6.47;;;5.88;;
21432;SDS011;18592;49.708;10.900;2023-04-10T09:50:59;6.45;;;5.70;;
21432;SDS011;18592;49.708;10.900;2023-04-10T09:53:01;5.85;;;5.30;;
21432;SDS011;18592;49.708;10.900;2023-04-10T09:55:03;6.20;;;5.60;;
21432;SDS011;18592;49.708;10.900;2023-04-10T09:57:06;6.18;;;5.63;;
21432;SDS011;18592;49.708;10.900;2023-04-10T09:59:11;5.72;;;5.22;;
21432;SDS011;18592;49.708;10.900;2023-04-10T10:01:19;6.20;;;5.60;;
21432;SDS011;18592;49.708;10.900;2023-04-10T10:03:52;5.43;;;4.93;;
21432;SDS011;18592;49.708;10.900;2023-04-10T10:05:55;6.95;;;6.32;;
21432;SDS011;18592;49.708;10.900;2023-04-10T10:07:57;6.32;;;5.72;;
21432;SDS011;18592;49.708;10.900;2023-04-10T10:10:02;5.72;;;5.22;;
21432;SDS011;18592;49.708;10.900;2023-04-10T10:12:05;6.05;;;5.45;;
21432;SDS011;18592;49.708;10.900;2023-04-10T10:14:12;5.80;;;5.30;;
21432;SDS011;18592;49.708;10.900;2023-04-10T10:16:41;6.13;;;5.55;;
21432;SDS011;18592;49.708;10.900;2023-04-10T10:19:00;5.53;;;5.03;;
21432;SDS011;18592;49.708;10.900;2023-04-10T10:21:13;5.60;;;5.10;;
21432;SDS011;18592;49.708;10.900;2023-04-10T10:23:19;5.38;;;4.88;;
21432;SDS011;18592;49.708;10.900;2023-04-10T10:25:24;5.45;;;4.95;;
21432;SDS011;18592;49.708;10.900;2023-04-10T10:27:27;5.70;;;5.20;;
21432;SDS011;18592;49.708;10.900;2023-04-10T10:29:34;5.60;;;5.10;;
21432;SDS011;18592;49.708;10.900;2023-04-10T10:31:41;5.55;;;5.05;;
21432;SDS011;18592;49.708;10.900;2023-04-10T10:33:51;5.18;;;4.72;;
21432;SDS011;18592;49.708;10.900;2023-04-10T10:35:53;4.93;;;4.45;;
21432;SDS011;18592;49.708;10.900;2023-04-10T10:37:58;5.43;;;4.93;;
21432;SDS011;18592;49.708;10.900;2023-04-10T10:40:11;4.93;;;4.53;;
21432;SDS011;18592;49.708;10.900;2023-04-10T10:47:21;4.68;;;4.28;;
21432;SDS011;18592;49.708;10.900;2023-04-10T10:49:50;5.78;;;4.43;;
21432;SDS011;18592;49.708;10.900;2023-04-10T10:52:01;4.72;;;4.30;;
21432;SDS011;18592;49.708;10.900;2023-04-10T10:54:03;4.38;;;3.97;;
21432;SDS011;18592;49.708;10.900;2023-04-10T10:56:34;4.20;;;3.80;;
21432;SDS011;18592;49.708;10.900;2023-04-10T10:58:50;4.50;;;4.10;;
21432;SDS011;18592;49.708;10.900;2023-04-10T11:05:37;4.60;;;4.20;;
21432;SDS011;18592;49.708;10.900;2023-04-10T11:09:59;3.97;;;3.67;;
21432;SDS011;18592;49.708;10.900;2023-04-10T11:12:04;3.95;;;3.63;;
21432;SDS011;18592;49.708;10.900;2023-04-10T11:16:09;4.53;;;4.13;;
21432;SDS011;18592;49.708;10.900;2023-04-10T11:18:11;4.40;;;4.00;;
21432;SDS011;18592;49.708;10.900;2023-04-10T11:20:13;3.83;;;3.53;;
21432;SDS011;18592;49.708;10.900;2023-04-10T11:22:17;4.32;;;3.83;;
21432;SDS011;18592;49.708;10.900;2023-04-10T11:24:27;3.97;;;3.67;;
21432;SDS011;18592;49.708;10.900;2023-04-10T11:26:44;4.28;;;3.97;;
21432;SDS011;18592;49.708;10.900;2023-04-10T11:28:48;4.10;;;3.70;;
21432;SDS011;18592;49.708;10.900;2023-04-10T11:30:50;4.05;;;3.75;;
21432;SDS011;18592;49.708;10.900;2023-04-10T11:32:52;4.07;;;3.75;;
21432;SDS011;18592;49.708;10.900;2023-04-10T11:35:05;3.83;;;3.53;;
21432;SDS011;18592;49.708;10.900;2023-04-10T11:37:07;3.90;;;3.60;;
21432;SDS011;18592;49.708;10.900;2023-04-10T11:39:15;3.83;;;3.53;;
21432;SDS011;18592;49.708;10.900;2023-04-10T11:41:29;3.30;;;3.00;;
21432;SDS011;18592;49.708;10.900;2023-04-10T11:43:35;4.13;;;3.80;;
21432;SDS011;18592;49.708;10.900;2023-04-10T11:45:39;4.25;;;3.47;;
21432;SDS011;18592;49.708;10.900;2023-04-10T11:47:41;3.75;;;3.45;;
21432;SDS011;18592;49.708;10.900;2023-04-10T11:49:52;3.10;;;2.90;;
21432;SDS011;18592;49.708;10.900;2023-04-10T11:51:56;3.42;;;3.13;;
21432;SDS011;18592;49.708;10.900;2023-04-10T11:54:03;3.55;;;3.25;;
21432;SDS011;18592;49.708;10.900;2023-04-10T11:56:16;3.85;;;3.55;;
21432;SDS011;18592;49.708;10.900;2023-04-10T11:58:29;3.47;;;3.17;;
21432;SDS011;18592;49.708;10.900;2023-04-10T12:00:49;3.47;;;3.10;;
21432;SDS011;18592;49.708;10.900;2023-04-10T12:02:56;3.70;;;3.40;;
21432;SDS011;18592;49.708;10.900;2023-04-10T12:05:02;3.35;;;3.05;;
21432;SDS011;18592;49.708;10.900;2023-04-10T12:07:04;3.10;;;2.90;;
21432;SDS011;18592;49.708;10.900;2023-04-10T12:11:33;3.25;;;2.95;;
21432;SDS011;18592;49.708;10.900;2023-04-10T12:13:38;3.40;;;3.10;;
21432;SDS011;18592;49.708;10.900;2023-04-10T12:15:52;3.50;;;3.03;;
21432;SDS011;18592;49.708;10.900;2023-04-10T12:17:57;3.67;;;3.30;;
21432;SDS011;18592;49.708;10.900;2023-04-10T12:19:59;3.58;;;3.28;;
21432;SDS011;18592;49.708;10.900;2023-04-10T12:22:06;3.30;;;3.00;;
21432;SDS011;18592;49.708;10.900;2023-04-10T12:24:12;3.47;;;3.17;;
21432;SDS011;18592;49.708;10.900;2023-04-10T12:26:33;2.83;;;2.63;;
21432;SDS011;18592;49.708;10.900;2023-04-10T12:28:36;3.85;;;3.20;;
21432;SDS011;18592;49.708;10.900;2023-04-10T12:30:44;2.97;;;2.67;;
21432;SDS011;18592;49.708;10.900;2023-04-10T12:32:50;3.15;;;2.85;;
21432;SDS011;18592;49.708;10.900;2023-04-10T12:35:08;3.50;;;3.20;;
21432;SDS011;18592;49.708;10.900;2023-04-10T12:37:13;3.08;;;2.88;;
21432;SDS011;18592;49.708;10.900;2023-04-10T12:39:23;3.40;;;3.10;;
21432;SDS011;18592;49.708;10.900;2023-04-10T12:41:26;3.38;;;3.08;;
21432;SDS011;18592;49.708;10.900;2023-04-10T12:43:34;3.90;;;3.38;;
21432;SDS011;18592;49.708;10.900;2023-04-10T12:45:44;3.50;;;3.20;;
21432;SDS011;18592;49.708;10.900;2023-04-10T12:47:47;3.13;;;2.90;;
21432;SDS011;18592;49.708;10.900;2023-04-10T12:50:13;3.22;;;2.92;;
21432;SDS011;18592;49.708;10.900;2023-04-10T12:52:25;3.50;;;3.20;;
21432;SDS011;18592;49.708;10.900;2023-04-10T12:54:47;3.38;;;3.08;;
21432;SDS011;18592;49.708;10.900;2023-04-10T12:56:49;3.83;;;3.22;;
21432;SDS011;18592;49.708;10.900;2023-04-10T12:59:04;3.72;;;3.33;;
21432;SDS011;18592;49.708;10.900;2023-04-10T13:01:07;3.72;;;3.30;;
21432;SDS011;18592;49.708;10.900;2023-04-10T13:03:11;4.15;;;3.30;;
21432;SDS011;18592;49.708;10.900;2023-04-10T13:05:13;4.13;;;3.38;;
21432;SDS011;18592;49.708;10.900;2023-04-10T13:07:15;4.38;;;3.35;;
21432;SDS011;18592;49.708;10.900;2023-04-10T13:09:17;3.45;;;3.15;;